createdAt,value
2019-04-14T00:01:41.242Z,32.37
2019-04-14T00:04:18.221Z,33.47
2019-04-14T00:06:48.951Z,34.57
2019-04-14T00:09:20.635Z,32.77
2019-04-14T00:11:52.570Z,30.43
2019-04-14T00:14:25.009Z,30.67
2019-04-14T00:16:55.802Z,32.57
2019-04-14T00:19:26.421Z,30.57
2019-04-14T00:22:00.895Z,32.30
2019-04-14T00:24:31.465Z,31.30
2019-04-14T00:27:04.231Z,33.50
2019-04-14T00:29:35.094Z,33.07
2019-04-14T00:32:05.861Z,31.80
2019-04-14T00:34:48.544Z,31.47
2019-04-14T00:37:31.596Z,31.97
2019-04-14T00:40:23.610Z,31.13
2019-04-14T00:43:16.245Z,29.90
2019-04-14T00:46:09.950Z,30.53
2019-04-14T00:48:40.980Z,30.10
2019-04-14T00:51:13.398Z,31.00
2019-04-14T00:53:44.607Z,30.20
2019-04-14T00:56:15.297Z,30.27
2019-04-14T00:58:45.848Z,28.17
2019-04-14T01:01:17.560Z,30.00
2019-04-14T01:03:48.322Z,27.00
2019-04-14T01:06:18.974Z,27.97
2019-04-14T01:08:49.598Z,25.80
2019-04-14T01:11:20.364Z,26.57
2019-04-14T01:13:51.024Z,27.40
2019-04-14T01:16:23.869Z,25.67
2019-04-14T01:18:55.859Z,26.43
2019-04-14T01:21:26.551Z,27.90
2019-04-14T01:23:57.185Z,28.50
2019-04-14T01:26:28.823Z,29.70
2019-04-14T01:28:59.605Z,27.40
2019-04-14T01:31:30.232Z,28.20
2019-04-14T01:34:01.856Z,27.33
2019-04-14T01:36:32.752Z,27.00
2019-04-14T01:39:04.690Z,29.77
2019-04-14T01:41:36.791Z,26.67
2019-04-14T01:44:07.406Z,27.80
2019-04-14T01:46:39.094Z,28.40
2019-04-14T01:49:09.843Z,26.27
2019-04-14T01:51:46.348Z,28.47
2019-04-14T01:54:47.260Z,29.10
2019-04-14T01:57:32.887Z,27.37
2019-04-14T02:00:22.745Z,26.97
2019-04-14T02:02:55.365Z,28.03
2019-04-14T02:05:26.080Z,27.10
2019-04-14T02:07:57.915Z,28.00
2019-04-14T02:10:28.629Z,29.77
2019-04-14T02:13:00.544Z,27.63
2019-04-14T02:15:31.370Z,29.20
2019-04-14T02:18:03.129Z,29.87
2019-04-14T02:20:33.989Z,27.10
2019-04-14T02:23:05.966Z,27.77
2019-04-14T02:25:36.649Z,26.30
2019-04-14T02:28:07.217Z,29.50
2019-04-14T02:30:44.360Z,28.53
2019-04-14T02:36:14.720Z,27.90
2019-04-14T02:39:01.791Z,31.10
2019-04-14T02:41:24.192Z,28.77
2019-04-14T02:48:52.229Z,27.70
2019-04-14T02:57:17.474Z,26.53
2019-04-14T02:59:49.691Z,27.90
2019-04-14T03:05:08.110Z,27.83
2019-04-14T03:10:10.515Z,30.70
2019-04-14T03:15:01.462Z,29.50
2019-04-14T03:17:58.570Z,31.63
2019-04-14T03:23:05.018Z,30.30
2019-04-14T03:25:53.109Z,30.40
2019-04-14T03:28:32.991Z,29.53
2019-04-14T03:34:07.448Z,29.27
2019-04-14T03:36:47.713Z,31.27
2019-04-14T03:38:54.974Z,33.07
2019-04-14T03:41:24.198Z,33.37
2019-04-14T03:44:01.236Z,32.93
2019-04-14T03:46:25.374Z,34.90
2019-04-14T03:48:58.442Z,33.30
2019-04-14T03:51:37.089Z,32.97
2019-04-14T03:53:58.715Z,33.30
2019-04-14T03:56:42.139Z,36.27
2019-04-14T03:59:15.089Z,31.47
2019-04-14T04:01:46.097Z,35.13
2019-04-14T04:04:16.642Z,33.97
2019-04-14T04:06:48.467Z,36.90
2019-04-14T04:09:21.448Z,35.83
2019-04-14T04:11:52.124Z,31.67
2019-04-14T04:14:22.718Z,35.07
2019-04-14T04:17:21.919Z,35.30
2019-04-14T04:20:11.185Z,36.30
2019-04-14T04:22:59.492Z,35.60
2019-04-14T04:25:38.624Z,36.23
2019-04-14T04:28:27.837Z,33.33
2019-04-14T04:31:04.543Z,34.77
2019-04-14T04:33:52.285Z,32.90
2019-04-14T04:36:46.123Z,35.30
2019-04-14T04:39:26.445Z,36.37
2019-04-14T04:41:57.947Z,35.20
2019-04-14T04:44:29.689Z,35.43
2019-04-14T04:47:01.189Z,36.43
2019-04-14T04:49:32.891Z,34.67
2019-04-14T04:52:04.214Z,33.27
2019-04-14T04:54:34.820Z,34.10
2019-04-14T04:57:06.766Z,33.93
2019-04-14T04:59:38.732Z,36.57
2019-04-14T05:02:09.461Z,35.53
2019-04-14T05:04:40.081Z,33.57
2019-04-14T05:07:10.640Z,34.40
2019-04-14T05:10:04.742Z,35.13
2019-04-14T05:12:58.584Z,33.30
2019-04-14T05:15:48.958Z,34.30
2019-04-14T05:18:22.232Z,35.20
2019-04-14T05:20:53.299Z,33.87
2019-04-14T05:23:24.035Z,34.30
2019-04-14T05:25:55.952Z,34.53
2019-04-14T05:28:26.809Z,34.13
2019-04-14T05:30:57.468Z,34.23
2019-04-14T05:33:29.250Z,34.30
2019-04-14T05:35:59.981Z,33.70
2019-04-14T05:38:32.690Z,33.50
2019-04-14T05:41:02.835Z,33.10
2019-04-14T05:43:41.589Z,34.10
2019-04-14T05:46:05.665Z,32.93
2019-04-14T05:48:36.200Z,31.77
2019-04-14T05:51:06.833Z,34.37
2019-04-14T05:53:37.427Z,34.73
2019-04-14T05:56:08.043Z,30.83
2019-04-14T05:58:38.622Z,35.13
2019-04-14T06:01:11.218Z,35.83
2019-04-14T06:03:43.146Z,33.87
2019-04-14T06:06:13.878Z,35.20
2019-04-14T06:08:44.483Z,32.07
2019-04-14T06:11:16.271Z,33.27
2019-04-14T06:13:47.980Z,34.23
2019-04-14T06:16:18.608Z,33.57
2019-04-14T06:18:50.209Z,31.80
2019-04-14T06:21:20.883Z,31.50
2019-04-14T06:23:51.441Z,31.63
2019-04-14T06:26:22.024Z,31.80
2019-04-14T06:28:52.549Z,31.87
2019-04-14T06:31:54.013Z,32.27
2019-04-14T06:34:55.765Z,30.40
2019-04-14T06:37:31.944Z,32.70
2019-04-14T06:40:04.205Z,33.17
2019-04-14T06:42:34.900Z,36.10
2019-04-14T06:45:05.720Z,33.33
2019-04-14T06:47:36.353Z,33.87
2019-04-14T06:50:07.069Z,33.30
2019-04-14T06:52:37.636Z,32.90
2019-04-14T06:55:08.280Z,32.57
2019-04-14T06:57:38.917Z,34.10
2019-04-14T07:00:09.629Z,38.80
2019-04-14T07:02:40.265Z,34.80
2019-04-14T07:05:10.938Z,36.87
2019-04-14T07:07:41.569Z,33.40
2019-04-14T07:10:12.174Z,32.30
2019-04-14T07:12:43.220Z,36.27
2019-04-14T07:15:14.306Z,36.77
2019-04-14T07:17:44.935Z,32.97
2019-04-14T07:20:15.557Z,33.37
2019-04-14T07:22:46.205Z,33.90
2019-04-14T07:25:16.830Z,33.50
2019-04-14T07:27:47.535Z,40.23
2019-04-14T07:30:34.305Z,38.53
2019-04-14T07:33:30.007Z,32.67
2019-04-14T07:36:27.551Z,33.80
2019-04-14T07:39:13.449Z,31.90
2019-04-14T07:41:50.370Z,32.70
2019-04-14T07:44:49.985Z,34.57
2019-04-14T07:47:39.782Z,32.10
2019-04-14T07:50:17.263Z,34.60
2019-04-14T07:53:07.015Z,29.50
2019-04-14T07:55:41.965Z,30.50
2019-04-14T07:58:25.933Z,31.87
2019-04-14T08:00:59.604Z,31.37
2019-04-14T08:03:48.380Z,31.00
2019-04-14T08:06:19.296Z,31.03
2019-04-14T08:08:49.953Z,29.73
2019-04-14T08:11:20.707Z,28.53
2019-04-14T08:13:51.341Z,30.37
2019-04-14T08:16:21.945Z,31.30
2019-04-14T08:18:52.574Z,29.90
2019-04-14T08:21:23.118Z,30.93
2019-04-14T08:23:53.754Z,30.57
2019-04-14T08:26:26.425Z,29.90
2019-04-14T08:28:57.097Z,29.97
2019-04-14T08:31:27.783Z,31.73
2019-04-14T08:33:58.442Z,30.77
2019-04-14T08:36:29.072Z,29.27
2019-04-14T08:38:59.816Z,30.13
2019-04-14T08:41:36.768Z,30.20
2019-04-14T08:44:15.552Z,29.97
2019-04-14T08:47:20.571Z,29.70
2019-04-14T08:49:54.213Z,30.67
2019-04-14T08:52:28.402Z,29.10
2019-04-14T08:55:07.254Z,28.33
2019-04-14T08:57:42.911Z,27.93
2019-04-14T09:00:23.252Z,29.00
2019-04-14T09:03:15.922Z,28.27
2019-04-14T09:06:01.095Z,27.90
2019-04-14T09:08:52.476Z,29.50
2019-04-14T09:11:29.504Z,31.27
2019-04-14T09:14:00.140Z,30.97
2019-04-14T09:16:30.822Z,31.23
2019-04-14T09:19:07.727Z,31.43
2019-04-14T09:21:35.798Z,32.50
2019-04-14T09:24:06.433Z,29.13
2019-04-14T09:26:37.050Z,29.00
2019-04-14T09:29:07.689Z,29.73
2019-04-14T09:31:38.310Z,28.33
2019-04-14T09:34:09.241Z,30.87
2019-04-14T09:36:39.933Z,30.70
2019-04-14T09:39:10.489Z,29.43
2019-04-14T09:41:41.390Z,31.20
2019-04-14T09:44:12.256Z,32.40
2019-04-14T09:46:42.875Z,30.30
2019-04-14T09:49:13.521Z,31.27
2019-04-14T09:51:44.206Z,29.63
2019-04-14T09:54:14.925Z,30.10
2019-04-14T09:56:45.570Z,28.20
2019-04-14T09:59:16.228Z,30.13
2019-04-14T10:01:46.925Z,28.43
2019-04-14T10:04:17.681Z,29.27
2019-04-14T10:06:48.227Z,30.77
2019-04-14T10:09:19.007Z,30.20
2019-04-14T10:11:53.487Z,29.40
2019-04-14T10:14:21.320Z,31.00
2019-04-14T10:16:51.821Z,29.40
2019-04-14T10:19:21.945Z,28.93
2019-04-14T10:21:52.284Z,28.50
2019-04-14T10:24:22.923Z,29.00
2019-04-14T10:26:53.525Z,28.67
2019-04-14T10:29:24.309Z,28.50
2019-04-14T10:31:54.419Z,28.17
2019-04-14T10:34:24.891Z,29.30
2019-04-14T10:36:55.525Z,28.63
2019-04-14T10:39:27.246Z,29.53
2019-04-14T10:41:57.862Z,31.67
2019-04-14T10:44:28.572Z,31.00
2019-04-14T10:46:59.108Z,31.00
2019-04-14T10:49:29.689Z,28.87
2019-04-14T10:52:00.241Z,30.20
2019-04-14T10:54:30.894Z,27.70
2019-04-14T10:57:01.347Z,31.67
2019-04-14T10:59:32.094Z,30.50
2019-04-14T11:02:02.912Z,29.50
2019-04-14T11:04:33.687Z,29.63
2019-04-14T11:07:21.669Z,32.43
2019-04-14T11:09:53.906Z,31.20
2019-04-14T11:12:24.724Z,30.13
2019-04-14T11:14:55.323Z,30.10
2019-04-14T11:17:26.003Z,30.03
2019-04-14T11:19:56.662Z,31.77
2019-04-14T11:22:27.329Z,29.23
2019-04-14T11:24:57.969Z,32.50
2019-04-14T11:27:28.573Z,32.00
2019-04-14T11:29:59.192Z,29.63
2019-04-14T11:32:42.986Z,28.37
2019-04-14T11:35:18.162Z,30.17
2019-04-14T11:38:06.605Z,29.30
2019-04-14T11:40:41.949Z,30.97
2019-04-14T11:43:12.555Z,28.53
2019-04-14T11:45:43.269Z,29.57
2019-04-14T11:48:14.002Z,29.23
2019-04-14T11:50:44.671Z,30.20
2019-04-14T11:53:15.290Z,29.00
2019-04-14T11:55:46.826Z,30.13
2019-04-14T11:58:17.471Z,29.43
2019-04-14T12:01:01.873Z,30.83
2019-04-14T12:04:09.860Z,32.33
2019-04-14T12:07:02.708Z,41.10
2019-04-14T12:09:54.920Z,29.77
2019-04-14T12:12:25.577Z,30.53
2019-04-14T12:14:56.207Z,29.67
2019-04-14T12:17:26.271Z,29.40
2019-04-14T12:19:56.769Z,30.43
2019-04-14T12:22:27.421Z,29.10
2019-04-14T12:24:58.046Z,29.00
2019-04-14T12:27:28.764Z,30.47
2019-04-14T12:29:59.470Z,29.97
2019-04-14T12:32:30.799Z,29.73
2019-04-14T12:35:01.431Z,32.90
2019-04-14T12:37:32.061Z,28.90
2019-04-14T12:40:02.832Z,29.87
2019-04-14T12:42:49.293Z,28.80
2019-04-14T12:45:48.029Z,31.17
2019-04-14T12:48:29.886Z,29.80
2019-04-14T12:51:04.189Z,30.77
2019-04-14T12:53:34.906Z,28.30
2019-04-14T12:56:05.538Z,26.63
2019-04-14T12:58:52.677Z,26.70
2019-04-14T13:01:23.865Z,26.23
2019-04-14T13:03:54.577Z,25.37
2019-04-14T13:06:25.605Z,24.87
2019-04-14T13:08:56.228Z,24.00
2019-04-14T13:11:26.910Z,26.63
2019-04-14T13:13:57.554Z,23.40
2019-04-14T13:16:28.191Z,22.87
2019-04-14T13:18:58.913Z,20.73
2019-04-14T13:21:29.480Z,18.47
2019-04-14T13:24:00.141Z,18.57
2019-04-14T13:26:30.778Z,18.93
2019-04-14T13:29:01.625Z,20.27
2019-04-14T13:31:32.228Z,18.03
2019-04-14T13:34:02.789Z,17.37
2019-04-14T13:36:33.338Z,16.50
2019-04-14T13:39:06.388Z,17.40
2019-04-14T13:41:37.424Z,18.07
2019-04-14T13:44:08.080Z,17.17
2019-04-14T13:46:38.791Z,17.00
2019-04-14T13:49:09.413Z,18.50
2019-04-14T13:51:39.950Z,19.13
2019-04-14T13:54:11.671Z,17.60
2019-04-14T13:56:42.325Z,18.37
2019-04-14T13:59:13.042Z,18.67
2019-04-14T14:01:43.670Z,17.00
2019-04-14T14:04:14.305Z,18.67
2019-04-14T14:06:44.922Z,18.10
2019-04-14T14:09:15.590Z,19.90
2019-04-14T14:12:14.092Z,17.70
2019-04-14T14:15:03.751Z,19.63
2019-04-14T14:18:08.905Z,18.90
2019-04-14T14:20:58.574Z,18.43
2019-04-14T14:23:40.035Z,19.77
2019-04-14T14:26:12.938Z,18.23
2019-04-14T14:28:43.490Z,18.67
2019-04-14T14:31:14.190Z,19.93
2019-04-14T14:33:45.432Z,18.00
2019-04-14T14:36:16.251Z,18.83
2019-04-14T14:38:46.874Z,18.63
2019-04-14T14:41:18.472Z,18.77
2019-04-14T14:43:49.908Z,17.43
2019-04-14T14:46:39.124Z,17.10
2019-04-14T14:49:14.504Z,16.40
2019-04-14T14:51:53.338Z,17.33
2019-04-14T14:54:24.036Z,17.47
2019-04-14T14:56:54.686Z,16.97
2019-04-14T14:59:25.241Z,18.17
2019-04-14T15:01:55.861Z,18.60
2019-04-14T15:04:26.572Z,19.80
2019-04-14T15:06:57.198Z,18.10
2019-04-14T15:09:27.756Z,17.00
2019-04-14T15:11:58.399Z,19.90
2019-04-14T15:14:29.037Z,17.77
2019-04-14T15:16:59.671Z,16.50
2019-04-14T15:19:30.315Z,18.60
2019-04-14T15:22:00.941Z,16.57
2019-04-14T15:24:31.581Z,16.70
2019-04-14T15:27:02.205Z,17.53
2019-04-14T15:29:32.778Z,15.70
2019-04-14T15:32:03.399Z,17.97
2019-04-14T15:34:34.025Z,15.50
2019-04-14T15:37:04.656Z,17.17
2019-04-14T15:39:37.513Z,15.00
2019-04-14T15:42:07.555Z,15.67
2019-04-14T15:44:38.205Z,15.20
2019-04-14T15:47:08.849Z,14.63
2019-04-14T15:49:39.567Z,15.60
2019-04-14T15:52:10.110Z,14.23
2019-04-14T15:54:40.837Z,13.13
2019-04-14T15:57:39.734Z,13.70
2019-04-14T16:00:35.318Z,13.03
2019-04-14T16:03:28.789Z,13.47
2019-04-14T16:06:15.833Z,13.50
2019-04-14T16:09:08.533Z,13.00
2019-04-14T16:11:57.645Z,13.90
2019-04-14T16:14:51.933Z,14.80
2019-04-14T16:17:38.197Z,15.93
2019-04-14T16:20:15.407Z,13.83
2019-04-14T16:22:46.113Z,12.90
2019-04-14T16:25:16.899Z,13.37
2019-04-14T16:28:02.845Z,12.90
2019-04-14T16:30:49.770Z,13.20
2019-04-14T16:33:32.054Z,13.50
2019-04-14T16:36:02.763Z,12.37
2019-04-14T16:38:33.467Z,14.37
2019-04-14T16:41:04.273Z,12.83
2019-04-14T16:43:34.805Z,14.00
2019-04-14T16:46:05.445Z,14.97
2019-04-14T16:48:37.066Z,13.60
2019-04-14T16:51:09.521Z,14.20
2019-04-14T16:53:42.012Z,14.10
2019-04-14T16:56:30.371Z,14.13
2019-04-14T16:59:10.721Z,15.10
2019-04-14T17:01:43.738Z,14.00
2019-04-14T17:04:14.360Z,13.73
2019-04-14T17:06:44.989Z,14.87
2019-04-14T17:09:15.611Z,13.50
2019-04-14T17:11:47.383Z,14.37
2019-04-14T17:14:24.519Z,14.50
2019-04-14T17:17:12.073Z,14.17
2019-04-14T17:19:50.584Z,13.80
2019-04-14T17:22:27.690Z,14.50
2019-04-14T17:25:14.925Z,14.73
2019-04-14T17:27:55.065Z,14.40
2019-04-14T17:30:32.869Z,15.20
2019-04-14T17:33:14.715Z,15.90
2019-04-14T17:36:10.438Z,15.30
2019-04-14T17:39:00.114Z,15.57
2019-04-14T17:41:48.969Z,15.27
2019-04-14T17:44:33.082Z,15.07
2019-04-14T17:47:21.638Z,14.00
2019-04-14T17:50:15.687Z,14.30
2019-04-14T17:52:51.142Z,14.87
2019-04-14T17:55:35.080Z,15.57
2019-04-14T17:58:19.118Z,15.90
2019-04-14T18:01:14.883Z,15.67
2019-04-14T18:03:51.104Z,14.90
2019-04-14T18:06:38.371Z,15.60
2019-04-14T18:09:18.239Z,16.10
2019-04-14T18:11:58.344Z,15.57
2019-04-14T18:14:53.675Z,16.40
2019-04-14T18:17:52.582Z,15.33
2019-04-14T18:20:31.053Z,18.13
2019-04-14T18:23:02.772Z,15.50
2019-04-14T18:25:33.492Z,15.60
2019-04-14T18:28:20.566Z,16.00
2019-04-14T18:30:56.503Z,18.03
2019-04-14T18:33:46.222Z,17.30
2019-04-14T18:36:26.739Z,22.80
2019-04-14T18:39:08.822Z,18.67
2019-04-14T18:41:53.758Z,18.30
2019-04-14T18:44:42.121Z,16.37
2019-04-14T18:47:41.073Z,18.73
2019-04-14T18:50:26.263Z,17.20
2019-04-14T18:53:09.545Z,17.60
2019-04-14T18:55:49.545Z,16.63
2019-04-14T18:58:54.249Z,16.97
2019-04-14T19:01:32.019Z,18.10
2019-04-14T19:04:02.738Z,17.83
2019-04-14T19:06:33.434Z,17.70
2019-04-14T19:09:05.809Z,17.27
2019-04-14T19:11:59.665Z,17.93
2019-04-14T19:14:33.205Z,17.50
2019-04-14T19:17:23.105Z,17.63
2019-04-14T19:20:01.411Z,19.20
2019-04-14T19:22:26.820Z,18.30
2019-04-14T19:25:07.393Z,18.30
2019-04-14T19:27:29.082Z,16.83
2019-04-14T19:29:59.702Z,16.73
2019-04-14T19:32:30.409Z,17.20
2019-04-14T19:35:00.472Z,22.60
2019-04-14T19:37:30.525Z,21.20
2019-04-14T19:40:00.374Z,22.40
2019-04-14T19:42:30.483Z,21.13
2019-04-14T19:45:00.996Z,22.47
2019-04-14T19:47:31.659Z,21.50
2019-04-14T19:50:02.365Z,23.00
2019-04-14T19:52:32.958Z,20.93
2019-04-14T19:55:04.202Z,23.20
2019-04-14T19:57:34.773Z,23.60
2019-04-14T20:00:06.815Z,20.90
2019-04-14T20:02:37.020Z,25.57
2019-04-14T20:05:07.643Z,25.47
2019-04-14T20:07:38.261Z,24.10
2019-04-14T20:10:10.635Z,23.60
2019-04-14T20:12:41.261Z,24.30
2019-04-14T20:15:14.432Z,24.17
2019-04-14T20:17:53.499Z,23.57
2019-04-14T20:20:49.183Z,20.97
2019-04-14T20:23:37.860Z,21.20
2019-04-14T20:26:23.738Z,19.80
2019-04-14T20:29:12.209Z,21.37
2019-04-14T20:32:01.875Z,19.40
2019-04-14T20:34:33.591Z,20.13
2019-04-14T20:37:04.227Z,19.97
2019-04-14T20:39:34.948Z,21.07
2019-04-14T20:42:06.873Z,22.50
2019-04-14T20:44:37.506Z,20.57
2019-04-14T20:47:09.358Z,22.47
2019-04-14T20:49:40.069Z,20.13
2019-04-14T20:52:10.753Z,21.60
2019-04-14T20:54:41.334Z,23.00
2019-04-14T21:03:27.215Z,21.93
2019-04-14T21:06:16.820Z,21.90
2019-04-14T21:09:12.316Z,21.10
2019-04-14T21:11:57.970Z,22.37
2019-04-14T21:14:46.426Z,20.93
2019-04-14T21:17:23.274Z,20.73
2019-04-14T21:20:02.826Z,22.80
2019-04-14T21:22:37.019Z,25.07
2019-04-14T21:25:29.793Z,21.47
2019-04-14T21:28:09.614Z,21.73
2019-04-14T21:30:49.897Z,19.33
2019-04-14T21:33:43.309Z,20.20
2019-04-14T21:36:18.269Z,18.80
2019-04-14T21:38:58.867Z,21.50
2019-04-14T21:41:30.493Z,20.93
2019-04-14T21:44:02.121Z,20.57
2019-04-14T21:46:32.821Z,20.10
2019-04-14T21:49:03.433Z,21.57
2019-04-14T21:51:52.234Z,18.83
2019-04-14T21:54:23.025Z,19.80
2019-04-14T21:57:19.600Z,20.00
2019-04-14T22:00:24.342Z,18.80
2019-04-14T22:03:28.648Z,19.20
2019-04-14T22:06:08.433Z,20.27
2019-04-14T22:08:43.456Z,18.37
2019-04-14T22:11:17.780Z,20.00
2019-04-14T22:13:50.779Z,18.87
2019-04-14T22:16:20.636Z,20.57
2019-04-14T22:18:51.223Z,18.40
2019-04-14T22:21:21.774Z,19.20
2019-04-14T22:24:01.290Z,18.30
2019-04-14T22:26:26.285Z,16.90
2019-04-14T22:28:57.137Z,18.17
2019-04-14T22:31:27.789Z,18.43
2019-04-14T22:33:58.345Z,18.03
2019-04-14T22:36:28.905Z,17.63
2019-04-14T22:38:59.600Z,19.17
2019-04-14T22:41:30.186Z,17.90
2019-04-14T22:44:00.797Z,17.33
2019-04-14T22:46:31.439Z,18.03
2019-04-14T22:49:02.049Z,19.53
2019-04-14T22:51:32.681Z,19.43
2019-04-14T22:54:03.306Z,17.13
2019-04-14T22:56:39.566Z,17.63
2019-04-14T22:59:06.287Z,17.50
2019-04-14T23:01:38.573Z,18.03
2019-04-14T23:04:21.741Z,17.37
2019-04-14T23:07:10.238Z,17.03
2019-04-14T23:09:47.643Z,17.07
2019-04-14T23:12:32.122Z,16.43
2019-04-14T23:15:11.639Z,16.63
2019-04-14T23:18:04.082Z,18.13
2019-04-14T23:20:47.097Z,18.53
2019-04-14T23:23:31.997Z,17.03
2019-04-14T23:26:02.665Z,16.40
2019-04-14T23:28:33.283Z,16.53
2019-04-14T23:31:04.129Z,15.93
2019-04-14T23:33:34.773Z,17.20
2019-04-14T23:36:05.406Z,16.63
2019-04-14T23:38:36.138Z,15.67
2019-04-14T23:41:06.791Z,17.20
2019-04-14T23:43:37.422Z,16.37
2019-04-14T23:46:08.653Z,17.57
2019-04-14T23:48:39.314Z,17.17
2019-04-14T23:51:09.954Z,17.00
2019-04-14T23:53:40.582Z,17.10
2019-04-14T23:56:11.329Z,17.50
2019-04-14T23:58:41.949Z,16.73
